Time;durP1;ratioP1;P1;durP2;ratioP2;P2;SDS_P1;SDS_P2;PMS_P1;PMS_P2;Temp;Humidity;BMP_temperature;BMP_pressure;BME280_temperature;BME280_humidity;BME280_pressure;Samples;Min_cycle;Max_cycle;Signal;HPM_P1;HPM_P2
2020/12/01 00:00:00;;;;;;;25.87;16.40;;;;;;;0.21;100.00;98456.56;5073388;28;20211;-71
2020/12/01 00:02:26;;;;;;;27.93;17.60;;;;;;;0.20;100.00;98454.81;5075330;28;20212;-71
2020/12/01 00:04:53;;;;;;;29.53;18.03;;;;;;;0.21;100.00;98453.09;5074964;28;20214;-71
2020/12/01 00:07:18;;;;;;;29.47;18.53;;;;;;;0.22;100.00;98449.59;5075367;28;20207;-71
2020/12/01 00:09:45;;;;;;;30.63;17.73;;;;;;;0.23;100.00;98436.59;5075013;28;20299;-71
2020/12/01 00:12:11;;;;;;;33.60;18.77;;;;;;;0.22;100.00;98427.09;5074897;28;20239;-70
2020/12/01 00:14:37;;;;;;;32.53;19.50;;;;;;;0.27;100.00;98414.84;5075122;28;20231;-71
2020/12/01 00:17:04;;;;;;;31.40;18.93;;;;;;;0.24;100.00;98414.88;5074835;28;20268;-71
2020/12/01 00:19:30;;;;;;;33.17;19.40;;;;;;;0.23;100.00;98407.13;5075133;28;20211;-69
2020/12/01 00:21:56;;;;;;;28.63;18.67;;;;;;;0.24;100.00;98408.81;5075164;28;20237;-69
2020/12/01 00:24:22;;;;;;;33.17;20.17;;;;;;;0.26;100.00;98405.31;5067096;28;20716;-70
2020/12/01 00:26:48;;;;;;;31.73;18.97;;;;;;;0.26;100.00;98389.72;5054594;28;20216;-69
2020/12/01 00:29:14;;;;;;;34.37;18.93;;;;;;;0.27;100.00;98380.19;5054838;28;20253;-70
2020/12/01 00:31:40;;;;;;;32.50;18.63;;;;;;;0.24;100.00;98375.03;5054790;28;20269;-70
2020/12/01 00:34:08;;;;;;;33.23;19.10;;;;;;;0.28;100.00;98367.16;5054639;28;20579;-70
2020/12/01 00:36:34;;;;;;;34.63;19.13;;;;;;;0.30;100.00;98367.09;5054685;28;20216;-70
2020/12/01 00:39:00;;;;;;;35.33;20.90;;;;;;;0.35;100.00;98355.69;5054697;28;20218;-70
2020/12/01 00:41:26;;;;;;;32.23;19.27;;;;;;;0.41;100.00;98344.28;5054708;28;20250;-69
2020/12/01 00:43:52;;;;;;;34.53;19.53;;;;;;;0.41;100.00;98339.94;5054647;28;20236;-69
2020/12/01 00:46:18;;;;;;;33.23;18.57;;;;;;;0.45;100.00;98325.94;5054307;28;20217;-69
2020/12/01 00:48:45;;;;;;;32.57;18.93;;;;;;;0.45;100.00;98328.56;5054542;28;20221;-68
2020/12/01 00:51:12;;;;;;;31.50;18.90;;;;;;;0.45;100.00;98330.31;5052946;28;20223;-68
2020/12/01 00:53:37;;;;;;;34.20;18.60;;;;;;;0.49;100.00;98327.59;5054084;28;20215;-67
2020/12/01 00:56:03;;;;;;;34.27;19.67;;;;;;;0.50;100.00;98313.69;5054015;28;20235;-67
2020/12/01 00:58:29;;;;;;;34.70;17.97;;;;;;;0.49;100.00;98306.78;5054257;28;20212;-66
2020/12/01 01:00:55;;;;;;;37.53;19.90;;;;;;;0.50;100.00;98303.28;5054063;28;20695;-66
2020/12/01 01:03:21;;;;;;;38.13;20.27;;;;;;;0.50;100.00;98290.28;5054136;28;20212;-66
2020/12/01 01:05:47;;;;;;;40.73;22.07;;;;;;;0.50;100.00;98289.47;5053789;28;20303;-66
2020/12/01 01:08:14;;;;;;;42.30;21.20;;;;;;;0.46;100.00;98280.03;5053865;28;20212;-66
2020/12/01 01:10:40;;;;;;;33.90;19.47;;;;;;;0.52;100.00;98272.91;5053950;28;20212;-66
2020/12/01 01:13:07;;;;;;;36.60;20.03;;;;;;;0.53;100.00;98272.03;5053898;28;20666;-65
2020/12/01 01:15:34;;;;;;;37.77;19.00;;;;;;;0.55;100.00;98272.00;5053781;28;20704;-65
2020/12/01 01:18:02;;;;;;;35.17;19.97;;;;;;;0.57;100.00;98265.81;5051996;28;20219;-66
2020/12/01 01:20:29;;;;;;;39.03;20.70;;;;;;;0.50;100.00;98261.69;5053909;28;20208;-66
2020/12/01 01:22:55;;;;;;;37.87;20.73;;;;;;;0.58;100.00;98269.28;5053587;28;20216;-66
2020/12/01 01:25:22;;;;;;;37.20;19.83;;;;;;;0.62;100.00;98263.94;5067641;28;20207;-66
2020/12/01 01:27:48;;;;;;;36.10;20.63;;;;;;;0.66;100.00;98262.13;5073835;28;20208;-66
2020/12/01 01:30:17;;;;;;;37.43;20.50;;;;;;;0.68;100.00;98263.78;5073593;28;20214;-65
2020/12/01 01:32:43;;;;;;;36.63;20.27;;;;;;;0.67;100.00;98254.28;5073672;28;20231;-66
2020/12/01 01:35:10;;;;;;;40.57;21.03;;;;;;;0.70;100.00;98259.41;5073518;28;20227;-65
2020/12/01 01:37:36;;;;;;;37.03;20.87;;;;;;;0.75;100.00;98262.72;5072831;28;20215;-65
2020/12/01 01:40:03;;;;;;;37.53;19.97;;;;;;;0.74;100.00;98257.56;5073553;28;20217;-65
2020/12/01 01:45:38;;;;;;;40.90;20.43;;;;;;;0.77;100.00;98266.13;5073345;28;20360;-64
2020/12/01 01:48:14;;;;;;;34.97;18.77;;;;;;;0.79;100.00;98261.72;5073217;28;20222;-64
2020/12/01 01:50:40;;;;;;;36.10;19.03;;;;;;;0.86;100.00;98268.47;5074624;28;20214;-66
2020/12/01 01:53:06;;;;;;;34.03;19.03;;;;;;;0.85;100.00;98258.97;5076883;28;20307;-66
2020/12/01 01:55:32;;;;;;;39.37;19.60;;;;;;;0.82;100.00;98251.25;5076513;28;20354;-65
2020/12/01 01:58:02;;;;;;;38.30;20.67;;;;;;;0.82;100.00;98248.66;5078060;28;20577;-64
2020/12/01 02:00:53;;;;;;;40.93;21.40;;;;;;;0.80;100.00;98240.03;5078104;28;20218;-66
2020/12/01 02:03:29;;;;;;;41.03;20.87;;;;;;;0.75;100.00;98241.91;5079266;28;20211;-64
2020/12/01 02:05:55;;;;;;;40.43;19.87;;;;;;;0.72;100.00;98231.59;5078548;28;20218;-64
2020/12/01 02:08:22;;;;;;;35.50;19.13;;;;;;;0.71;100.00;98222.09;5076219;28;20572;-66
2020/12/01 02:10:49;;;;;;;34.07;18.80;;;;;;;0.72;100.00;98216.00;5073755;28;20575;-66
2020/12/01 02:13:20;;;;;;;36.37;19.37;;;;;;;0.71;100.00;98214.28;5076745;28;20719;-66
2020/12/01 02:15:46;;;;;;;37.73;20.47;;;;;;;0.69;100.00;98205.66;5072884;28;20235;-65
2020/12/01 02:18:12;;;;;;;39.07;20.53;;;;;;;0.69;100.00;98200.47;5073179;28;20226;-64
2020/12/01 02:20:38;;;;;;;37.67;20.17;;;;;;;0.73;100.00;98202.09;5073539;28;20239;-65
2020/12/01 02:23:04;;;;;;;41.40;19.77;;;;;;;0.78;100.00;98195.00;5072715;28;20210;-65
2020/12/01 02:25:30;;;;;;;36.47;18.67;;;;;;;0.81;100.00;98194.91;5057777;28;20670;-65
2020/12/01 02:28:01;;;;;;;42.63;21.97;;;;;;;0.81;100.00;98189.69;5052933;28;20261;-65
2020/12/01 02:30:27;;;;;;;38.07;20.50;;;;;;;0.81;100.00;98170.66;5052974;28;20211;-64
2020/12/01 02:32:53;;;;;;;39.97;19.57;;;;;;;0.77;100.00;98169.88;5052955;28;20273;-65
2020/12/01 02:35:19;;;;;;;36.10;19.43;;;;;;;0.75;100.00;98158.66;5050828;28;20261;-65
2020/12/01 02:37:47;;;;;;;34.63;19.23;;;;;;;0.73;100.00;98157.00;5052544;28;20211;-66
2020/12/01 02:40:17;;;;;;;40.17;20.23;;;;;;;0.71;100.00;98151.88;5052710;28;20220;-65
2020/12/01 02:42:43;;;;;;;37.90;19.10;;;;;;;0.71;100.00;98141.47;5052863;28;20223;-65
2020/12/01 02:45:11;;;;;;;41.07;20.47;;;;;;;0.72;100.00;98137.97;5052861;28;20584;-65
2020/12/01 02:47:37;;;;;;;40.43;20.57;;;;;;;0.69;100.00;98127.63;5052841;28;20231;-65
2020/12/01 02:50:03;;;;;;;46.73;21.93;;;;;;;0.66;100.00;98116.47;5055629;28;20302;-65
2020/12/01 02:52:29;;;;;;;39.83;21.10;;;;;;;0.67;100.00;98108.63;5056522;28;20212;-65
2020/12/01 02:54:55;;;;;;;35.87;19.80;;;;;;;0.69;100.00;98101.63;5056181;28;20237;-65
2020/12/01 02:57:21;;;;;;;37.90;20.50;;;;;;;0.69;100.00;98104.22;5056568;28;20220;-64
2020/12/01 02:59:47;;;;;;;37.57;20.07;;;;;;;0.69;100.00;98093.81;5056538;28;20243;-64
2020/12/01 03:02:14;;;;;;;35.67;18.63;;;;;;;0.72;100.00;98085.09;5056389;28;20715;-64
2020/12/01 03:04:40;;;;;;;42.03;20.90;;;;;;;0.74;100.00;98084.13;5059966;28;20605;-64
2020/12/01 03:07:06;;;;;;;37.90;19.60;;;;;;;0.72;100.00;98075.53;5060717;28;20254;-64
2020/12/01 03:09:32;;;;;;;41.33;20.03;;;;;;;0.77;100.00;98076.25;5060376;28;20204;-64
2020/12/01 03:11:58;;;;;;;42.53;20.27;;;;;;;0.76;100.00;98068.50;5058327;28;20270;-65
2020/12/01 03:14:24;;;;;;;37.80;20.40;;;;;;;0.79;100.00;98077.03;5056219;28;20226;-65
2020/12/01 03:16:50;;;;;;;39.60;20.03;;;;;;;0.82;100.00;98069.16;5056286;28;20208;-64
2020/12/01 03:19:19;;;;;;;37.23;19.50;;;;;;;0.86;100.00;98068.13;5055968;28;20298;-64
2020/12/01 03:21:45;;;;;;;37.53;19.23;;;;;;;0.86;100.00;98057.72;5056207;28;20688;-64
2020/12/01 03:24:11;;;;;;;39.10;19.73;;;;;;;0.90;100.00;98063.69;5060238;28;20598;-64
2020/12/01 03:26:37;;;;;;;38.40;19.87;;;;;;;0.89;100.00;98057.66;5074155;28;20247;-64
2020/12/01 03:29:03;;;;;;;38.30;20.37;;;;;;;0.92;100.00;98054.94;5076132;28;20613;-63
2020/12/01 03:31:29;;;;;;;36.63;18.00;;;;;;;0.96;100.00;98053.94;5076048;28;20210;-64
2020/12/01 03:33:55;;;;;;;38.93;18.83;;;;;;;0.96;100.00;98048.75;5075736;28;20216;-63
2020/12/01 03:36:22;;;;;;;33.63;17.90;;;;;;;1.00;100.00;98037.31;5075573;28;20603;-64
2020/12/01 03:38:48;;;;;;;37.07;19.03;;;;;;;0.99;100.00;98042.59;5075877;28;20211;-64
2020/12/01 03:41:15;;;;;;;34.30;18.37;;;;;;;1.01;100.00;98035.56;5075846;28;20219;-64
2020/12/01 03:43:42;;;;;;;35.40;17.87;;;;;;;1.04;100.00;98031.13;5075586;28;20672;-64
2020/12/01 03:46:08;;;;;;;35.00;17.43;;;;;;;1.06;100.00;98023.28;5075501;28;20257;-64
2020/12/01 03:48:34;;;;;;;29.90;16.90;;;;;;;1.09;100.00;98017.94;5075732;28;20219;-64
2020/12/01 03:51:00;;;;;;;33.73;17.90;;;;;;;1.12;100.00;98023.91;5075747;28;20219;-64
2020/12/01 03:53:27;;;;;;;32.03;16.63;;;;;;;1.14;100.00;98022.13;5073623;28;20265;-64
2020/12/01 03:55:53;;;;;;;36.50;18.40;;;;;;;1.13;100.00;98023.03;5075136;28;20242;-64
2020/12/01 03:58:19;;;;;;;32.23;16.87;;;;;;;1.15;100.00;98016.00;5075446;28;20214;-64
2020/12/01 04:00:45;;;;;;;34.37;16.70;;;;;;;1.17;100.00;98010.75;5074596;28;20206;-64
2020/12/01 04:03:11;;;;;;;29.73;15.53;;;;;;;1.21;100.00;98010.59;5075278;28;20590;-64
2020/12/01 04:05:37;;;;;;;27.97;15.70;;;;;;;1.27;100.00;98018.19;5075093;28;20665;-64
2020/12/01 04:08:07;;;;;;;31.80;17.50;;;;;;;1.28;100.00;98003.44;5075380;28;20229;-64
2020/12/01 04:10:33;;;;;;;32.50;16.53;;;;;;;1.30;100.00;98007.66;5074943;28;20215;-64
2020/12/01 04:12:59;;;;;;;31.10;16.17;;;;;;;1.31;100.00;98005.91;5074725;28;20227;-64
2020/12/01 04:15:25;;;;;;;32.33;16.60;;;;;;;1.32;100.00;98007.59;5074888;28;20674;-64
2020/12/01 04:17:51;;;;;;;31.17;16.37;;;;;;;1.37;100.00;98009.16;5074533;28;20239;-63
2020/12/01 04:20:17;;;;;;;30.53;15.30;;;;;;;1.34;100.00;98003.19;5073629;28;20224;-64
2020/12/01 04:22:44;;;;;;;28.83;14.93;;;;;;;1.32;100.00;98005.88;5075079;28;20211;-63
2020/12/01 04:25:11;;;;;;;34.87;16.37;;;;;;;1.33;100.00;98007.56;5062541;28;20208;-64
2020/12/01 04:27:39;;;;;;;29.43;16.43;;;;;;;1.35;100.00;98004.91;5054756;28;20661;-63
2020/12/01 04:30:07;;;;;;;34.20;16.83;;;;;;;1.36;100.00;98002.22;5054936;28;20211;-63
2020/12/01 04:32:33;;;;;;;32.57;16.27;;;;;;;1.42;100.00;98007.22;5054814;28;20214;-64
2020/12/01 04:34:59;;;;;;;34.50;15.90;;;;;;;1.45;100.00;98001.94;5054798;28;20246;-63
2020/12/01 04:37:25;;;;;;;29.37;14.43;;;;;;;1.46;100.00;98007.97;5054853;28;20215;-64
2020/12/01 04:39:51;;;;;;;30.87;16.17;;;;;;;1.51;100.00;97996.50;5054822;28;20208;-63
2020/12/01 04:42:19;;;;;;;30.97;16.43;;;;;;;1.53;100.00;97994.69;5054725;28;20211;-63
2020/12/01 04:44:54;;;;;;;31.03;14.70;;;;;;;1.56;100.00;97989.38;5052647;28;20692;-64
2020/12/01 04:47:25;;;;;;;29.47;15.47;;;;;;;1.59;100.00;97994.47;5054616;28;20215;-64
2020/12/01 04:49:54;;;;;;;28.27;14.57;;;;;;;1.59;100.00;98002.28;5054655;28;20576;-64
2020/12/01 04:52:42;;;;;;;27.70;14.67;;;;;;;1.56;100.00;97999.78;5054207;28;20218;-64
2020/12/01 04:55:34;;;;;;;26.07;14.67;;;;;;;1.61;100.00;97992.63;5054001;28;20243;-64
2020/12/01 04:58:23;;;;;;;29.33;16.07;;;;;;;1.66;100.00;97995.94;5054307;28;20251;-64
2020/12/01 05:01:02;;;;;;;28.70;14.80;;;;;;;1.60;100.00;97993.56;5054122;28;20212;-64
2020/12/01 05:03:53;;;;;;;28.40;14.57;;;;;;;1.56;100.00;97994.59;5054306;28;20204;-65
2020/12/01 05:06:53;;;;;;;29.73;15.43;;;;;;;1.50;100.00;97993.94;5054206;28;20212;-64
2020/12/01 05:09:24;;;;;;;26.80;14.23;;;;;;;1.45;100.00;97988.91;5053783;28;20211;-64
2020/12/01 05:11:55;;;;;;;30.50;15.70;;;;;;;1.41;100.00;97989.91;5051935;28;20242;-63
2020/12/01 05:14:28;;;;;;;30.83;16.00;;;;;;;1.38;100.00;97995.25;5053570;28;20670;-65
2020/12/01 05:17:07;;;;;;;28.23;14.80;;;;;;;1.38;100.00;97983.97;5053795;28;20218;-65
2020/12/01 05:19:39;;;;;;;31.90;15.30;;;;;;;1.35;100.00;97979.72;5054078;28;20250;-65
2020/12/01 05:22:06;;;;;;;30.13;15.63;;;;;;;1.30;100.00;97994.63;5053975;28;20231;-67
2020/12/01 05:24:37;;;;;;;30.07;15.40;;;;;;;1.24;100.00;97988.81;5060441;28;20667;-68
2020/12/01 05:27:03;;;;;;;29.00;16.53;;;;;;;1.19;100.00;97986.38;5073561;28;20207;-66
2020/12/01 05:29:29;;;;;;;29.57;15.67;;;;;;;1.16;100.00;97989.06;5073597;28;20208;-67
2020/12/01 05:31:56;;;;;;;41.43;17.87;;;;;;;1.14;100.00;97985.69;5073640;28;20214;-67
2020/12/01 05:34:23;;;;;;;31.37;16.20;;;;;;;1.17;100.00;97980.34;5073439;28;20219;-66
2020/12/01 05:36:49;;;;;;;31.53;16.27;;;;;;;1.19;100.00;97988.97;5071678;28;20235;-67
2020/12/01 05:39:17;;;;;;;26.73;15.10;;;;;;;1.17;100.00;97977.75;5073464;28;20222;-69
2020/12/01 05:41:47;;;;;;;29.70;16.27;;;;;;;1.12;100.00;97974.44;5073267;28;20211;-67
2020/12/01 05:44:19;;;;;;;32.87;16.57;;;;;;;1.13;100.00;97978.78;5073535;28;20222;-66
2020/12/01 05:46:51;;;;;;;39.67;18.67;;;;;;;1.22;100.00;97983.66;5073065;28;20211;-66
2020/12/01 05:49:34;;;;;;;30.73;16.27;;;;;;;1.36;100.00;97980.56;5073341;28;20211;-66
2020/12/01 05:52:04;;;;;;;37.13;18.63;;;;;;;1.39;100.00;97981.31;5073712;28;20241;-66
2020/12/01 05:54:34;;;;;;;36.93;17.73;;;;;;;1.44;100.00;97984.59;5073564;28;20215;-66
2020/12/01 05:57:00;;;;;;;36.87;17.77;;;;;;;1.51;100.00;97988.69;5072989;28;20208;-66
2020/12/01 05:59:26;;;;;;;35.67;17.67;;;;;;;1.56;100.00;97984.16;5073023;28;20211;-66
2020/12/01 06:01:57;;;;;;;38.17;18.70;;;;;;;1.60;100.00;97990.13;5072878;28;20297;-66
2020/12/01 06:04:26;;;;;;;34.83;18.07;;;;;;;1.58;100.00;97984.94;5072350;28;20203;-66
2020/12/01 06:07:06;;;;;;;38.73;19.03;;;;;;;1.59;100.00;97980.59;5073112;28;20209;-66
2020/12/01 06:09:47;;;;;;;34.07;17.80;;;;;;;1.63;100.00;97985.66;5073079;28;20210;-66
2020/12/01 06:12:21;;;;;;;35.60;17.77;;;;;;;1.68;100.00;97978.50;5072984;28;20246;-66
2020/12/01 06:14:53;;;;;;;34.27;18.17;;;;;;;1.67;100.00;97986.38;5072933;28;20207;-66
2020/12/01 06:17:25;;;;;;;34.87;18.67;;;;;;;1.72;100.00;97977.47;5073027;28;20572;-66
2020/12/01 06:20:01;;;;;;;35.27;18.13;;;;;;;1.73;100.00;97986.97;5073113;28;20219;-66
2020/12/01 06:23:04;;;;;;;34.73;17.80;;;;;;;1.74;100.00;97973.09;5073002;28;20576;-66
2020/12/01 06:25:50;;;;;;;36.00;16.60;;;;;;;1.80;100.00;97972.00;5057857;28;20213;-66
2020/12/01 06:28:49;;;;;;;33.17;17.40;;;;;;;1.83;100.00;97977.09;5051275;28;20207;-66
2020/12/01 06:31:50;;;;;;;35.83;16.60;;;;;;;1.84;100.00;97976.19;5053037;28;20231;-66
2020/12/01 06:34:31;;;;;;;35.03;16.47;;;;;;;1.83;100.00;97972.72;5040170;28;20703;-66
2020/12/01 06:37:26;;;;;;;35.30;17.07;;;;;;;1.85;100.00;97978.72;5052644;28;20724;-66
2020/12/01 06:40:26;;;;;;;30.40;15.97;;;;;;;1.86;100.00;97983.06;5052982;28;20287;-66
2020/12/01 06:42:55;;;;;;;32.00;16.27;;;;;;;1.86;100.00;97977.84;5053180;28;20300;-66
2020/12/01 06:45:26;;;;;;;34.03;16.43;;;;;;;1.85;100.00;97975.28;5052495;28;20689;-66
2020/12/01 06:48:00;;;;;;;32.57;15.60;;;;;;;1.81;100.00;97979.75;5052542;28;20222;-66
2020/12/01 06:50:26;;;;;;;29.27;15.13;;;;;;;1.85;100.00;97985.69;5052858;28;20566;-65
2020/12/01 06:52:58;;;;;;;37.80;17.13;;;;;;;1.81;100.00;97974.56;5052609;28;20212;-65
2020/12/01 06:55:47;;;;;;;33.57;16.97;;;;;;;1.80;100.00;97967.66;5050913;28;20575;-66
2020/12/01 06:58:20;;;;;;;32.17;16.27;;;;;;;1.85;100.00;97976.13;5052409;28;20227;-66
2020/12/01 07:00:46;;;;;;;32.40;16.30;;;;;;;1.89;100.00;97977.72;5052678;28;20208;-65
2020/12/01 07:03:21;;;;;;;33.57;17.17;;;;;;;1.87;100.00;97979.53;5052542;28;20218;-65
2020/12/01 07:05:47;;;;;;;32.77;16.57;;;;;;;1.86;100.00;97983.06;5052307;28;20219;-66
2020/12/01 07:08:23;;;;;;;30.33;15.93;;;;;;;1.86;100.00;97972.63;5052213;28;20763;-65
2020/12/01 07:11:00;;;;;;;28.47;15.40;;;;;;;1.89;100.00;97976.88;5052380;28;20212;-66
2020/12/01 07:13:36;;;;;;;26.73;15.07;;;;;;;1.90;100.00;97981.19;5052551;28;20212;-66
2020/12/01 07:16:08;;;;;;;28.80;15.80;;;;;;;1.91;100.00;97980.25;5052415;28;20242;-65
2020/12/01 07:18:36;;;;;;;29.70;16.80;;;;;;;1.89;100.00;97975.09;5052703;28;20211;-64
2020/12/01 07:21:18;;;;;;;30.63;15.43;;;;;;;1.88;100.00;97976.00;5050295;28;20208;-65
2020/12/01 07:23:53;;;;;;;29.57;16.20;;;;;;;1.85;100.00;97973.50;5052635;28;20581;-65
2020/12/01 07:26:26;;;;;;;28.13;14.53;;;;;;;1.84;100.00;97973.59;5072233;28;20256;-65
2020/12/01 07:29:28;;;;;;;31.90;16.27;;;;;;;1.82;100.00;97976.25;5072398;28;20215;-65
2020/12/01 07:32:05;;;;;;;27.13;14.37;;;;;;;1.83;100.00;97987.53;5046356;28;20211;-65
2020/12/01 07:34:33;;;;;;;27.67;15.23;;;;;;;1.79;100.00;97985.94;5072358;28;20309;-65
2020/12/01 07:37:27;;;;;;;26.83;15.20;;;;;;;1.76;100.00;97983.41;5074525;28;20318;-65
2020/12/01 07:39:56;;;;;;;29.50;15.93;;;;;;;1.79;100.00;97980.72;5075880;28;20217;-65
2020/12/01 07:42:25;;;;;;;28.67;15.17;;;;;;;1.82;100.00;97986.66;5075844;28;20222;-65
2020/12/01 07:44:51;;;;;;;27.53;14.67;;;;;;;1.86;100.00;97987.41;5075506;28;20215;-65
2020/12/01 07:47:22;;;;;;;28.33;15.67;;;;;;;1.87;100.00;97989.94;5074236;28;20574;-65
2020/12/01 07:49:56;;;;;;;31.70;16.77;;;;;;;1.88;100.00;97996.84;5075369;28;20677;-65
2020/12/01 07:52:28;;;;;;;27.93;15.70;;;;;;;1.90;100.00;97992.44;5075574;28;20204;-65
2020/12/01 07:55:01;;;;;;;25.10;14.50;;;;;;;1.94;100.00;97991.41;5075324;28;20204;-65
2020/12/01 07:57:27;;;;;;;27.80;15.33;;;;;;;1.98;100.00;97990.41;5075308;28;20207;-65
2020/12/01 07:59:54;;;;;;;25.00;15.10;;;;;;;2.02;100.00;97989.38;5075237;28;20223;-65
2020/12/01 08:02:25;;;;;;;28.97;15.57;;;;;;;2.03;100.00;97991.06;5075417;28;20228;-65
2020/12/01 08:05:01;;;;;;;29.23;16.33;;;;;;;1.99;100.00;97989.50;5075327;28;20215;-65
2020/12/01 08:07:27;;;;;;;29.30;16.20;;;;;;;1.92;100.00;97985.44;5075152;28;20215;-64
2020/12/01 08:10:01;;;;;;;31.90;16.67;;;;;;;1.99;100.00;97989.50;5075447;28;20245;-64
2020/12/01 08:12:32;;;;;;;27.20;16.10;;;;;;;1.98;100.00;97993.00;5073766;28;20235;-64
2020/12/01 08:14:59;;;;;;;28.13;16.07;;;;;;;1.97;100.00;97996.50;5075316;28;20211;-64
2020/12/01 08:17:27;;;;;;;29.00;16.33;;;;;;;1.99;100.00;97994.72;5074990;28;20630;-64
2020/12/01 08:19:54;;;;;;;28.77;15.67;;;;;;;2.04;100.00;98000.59;5075023;28;20207;-64
2020/12/01 08:22:26;;;;;;;28.03;15.47;;;;;;;2.02;100.00;98001.56;5071549;28;20218;-65
2020/12/01 08:24:58;;;;;;;26.90;15.70;;;;;;;2.08;100.00;98003.94;5063185;28;20213;-65
2020/12/01 08:27:30;;;;;;;26.27;15.27;;;;;;;2.01;100.00;97992.88;5053409;28;20212;-65
2020/12/01 08:30:00;;;;;;;28.37;16.27;;;;;;;2.00;100.00;97991.19;5052508;28;20219;-64
2020/12/01 08:32:35;;;;;;;29.23;15.43;;;;;;;2.02;100.00;97991.97;5042716;28;20365;-64
2020/12/01 08:35:11;;;;;;;27.97;15.90;;;;;;;2.04;100.00;97991.91;5052827;28;20215;-65
2020/12/01 08:37:47;;;;;;;31.87;15.83;;;;;;;2.04;100.00;97998.00;5051886;28;20204;-65
2020/12/01 08:40:21;;;;;;;29.47;16.23;;;;;;;2.07;100.00;97995.25;5050902;28;20242;-64
2020/12/01 08:43:00;;;;;;;32.03;16.73;;;;;;;2.10;100.00;97992.56;5052587;28;20212;-64
2020/12/01 08:45:39;;;;;;;27.67;15.83;;;;;;;2.10;100.00;97991.69;5052163;28;20239;-64
2020/12/01 08:48:14;;;;;;;28.10;16.17;;;;;;;2.10;100.00;97992.56;5052583;28;20221;-64
2020/12/01 08:50:41;;;;;;;28.47;17.30;;;;;;;2.11;100.00;98004.69;5052136;28;20216;-65
2020/12/01 08:53:11;;;;;;;30.33;16.90;;;;;;;2.14;100.00;97999.31;5052741;28;20238;-63
2020/12/01 08:55:46;;;;;;;28.13;16.27;;;;;;;2.14;100.00;98007.16;5052696;28;20232;-64
2020/12/01 08:58:19;;;;;;;29.33;16.40;;;;;;;2.14;100.00;98009.75;5051908;28;20208;-64
2020/12/01 09:00:58;;;;;;;28.23;16.17;;;;;;;2.11;100.00;98007.28;5052269;28;20212;-64
2020/12/01 09:03:24;;;;;;;32.53;17.53;;;;;;;2.14;100.00;98011.53;5052173;28;20214;-64
2020/12/01 09:05:51;;;;;;;32.77;18.50;;;;;;;2.15;100.00;98010.63;5049385;28;20220;-64
2020/12/01 09:14:12;;;;;;;34.90;18.80;;;;;;;2.15;100.00;98011.44;5051227;28;20689;-63
2020/12/01 09:16:51;;;;;;;32.27;18.77;;;;;;;2.16;100.00;98007.97;5052136;28;20238;-63
2020/12/01 09:22:08;;;;;;;33.20;18.03;;;;;;;2.25;100.00;98015.41;5040412;28;20231;-64
2020/12/01 09:24:34;;;;;;;35.97;19.67;;;;;;;2.24;100.00;98013.72;5059054;28;20258;-63
2020/12/01 09:27:03;;;;;;;32.07;17.93;;;;;;;2.27;100.00;98016.19;5072051;28;20242;-63
2020/12/01 09:29:30;;;;;;;32.47;17.80;;;;;;;2.29;100.00;98019.63;5071535;28;20207;-64
2020/12/01 09:31:57;;;;;;;29.00;16.67;;;;;;;2.31;100.00;98017.78;5059344;28;20201;-63
2020/12/01 09:34:23;;;;;;;31.50;17.07;;;;;;;2.33;100.00;98021.19;5045621;28;20217;-63
2020/12/01 09:36:56;;;;;;;31.87;17.80;;;;;;;2.34;100.00;98025.47;5050769;28;20236;-62
2020/12/01 09:39:22;;;;;;;33.30;18.90;;;;;;;2.32;100.00;98019.47;5052073;28;20213;-63
2020/12/01 09:41:56;;;;;;;33.40;19.17;;;;;;;2.32;100.00;98022.09;5051391;28;20377;-63
2020/12/01 09:44:41;;;;;;;35.47;18.67;;;;;;;2.26;100.00;98024.09;5053205;28;20221;-62
2020/12/01 09:47:12;;;;;;;33.23;18.47;;;;;;;2.26;100.00;98035.38;5053477;28;20218;-63
2020/12/01 09:49:38;;;;;;;35.37;17.97;;;;;;;2.24;100.00;98036.31;5053404;28;20212;-62
2020/12/01 09:52:09;;;;;;;33.60;18.07;;;;;;;2.22;100.00;98025.13;5053068;28;20307;-63
2020/12/01 09:54:38;;;;;;;37.03;19.43;;;;;;;2.22;100.00;98022.50;5053217;28;20299;-63
2020/12/01 09:57:06;;;;;;;32.70;18.83;;;;;;;2.20;100.00;98019.94;5051363;28;20247;-64
2020/12/01 09:59:40;;;;;;;33.87;17.93;;;;;;;2.20;100.00;98024.34;5052602;28;20675;-64
2020/12/01 10:05:35;;;;;;;30.70;18.33;;;;;;;2.25;100.00;98023.25;5053080;28;20215;-64
2020/12/01 10:08:18;;;;;;;29.87;17.30;;;;;;;2.36;100.00;98026.28;5053336;28;20299;-63
2020/12/01 10:35:22;;;;;;;22.90;14.77;;;;;;;2.65;100.00;98028.63;5039079;28;20260;-63
2020/12/01 10:37:51;;;;;;;26.10;16.43;;;;;;;2.61;100.00;98032.25;5073029;28;20216;-63
2020/12/01 10:40:17;;;;;;;25.07;15.50;;;;;;;2.61;100.00;98037.47;5072638;28;20211;-63
2020/12/01 10:42:43;;;;;;;29.57;18.47;;;;;;;2.62;100.00;98033.94;5072599;28;20677;-63
2020/12/01 10:45:09;;;;;;;30.07;17.93;;;;;;;2.60;100.00;98035.78;5072850;28;20212;-63
2020/12/01 10:47:35;;;;;;;30.90;17.77;;;;;;;2.56;100.00;98031.56;5072567;28;20215;-64
2020/12/01 10:50:01;;;;;;;30.37;18.47;;;;;;;2.59;100.00;98034.09;5070888;28;20209;-63
2020/12/01 10:52:28;;;;;;;28.17;17.00;;;;;;;2.56;100.00;98028.13;5072935;28;20218;-63
2020/12/01 10:54:54;;;;;;;31.33;17.80;;;;;;;2.56;100.00;98025.53;5072827;28;20215;-63
2020/12/01 10:57:20;;;;;;;28.43;16.37;;;;;;;2.54;100.00;98020.38;5072284;28;20233;-63
2020/12/01 10:59:46;;;;;;;28.23;16.77;;;;;;;2.55;100.00;98029.03;5072635;28;20298;-63
2020/12/01 11:02:12;;;;;;;25.13;15.10;;;;;;;2.55;100.00;98023.81;5072429;28;20250;-63
2020/12/01 11:04:38;;;;;;;24.93;15.27;;;;;;;2.57;100.00;98025.44;5072747;28;20208;-65
2020/12/01 11:07:04;;;;;;;27.50;15.30;;;;;;;2.59;100.00;98028.00;5072637;28;20217;-65
2020/12/01 11:09:31;;;;;;;23.63;14.93;;;;;;;2.63;100.00;98026.97;5072848;28;20243;-64
2020/12/01 11:11:57;;;;;;;24.53;14.63;;;;;;;2.66;100.00;98025.09;5076398;28;20247;-64
2020/12/01 11:14:23;;;;;;;24.07;14.47;;;;;;;2.69;100.00;98029.34;5076366;28;20211;-65
2020/12/01 11:16:49;;;;;;;23.13;13.93;;;;;;;2.68;100.00;98028.47;5074658;28;20262;-64
2020/12/01 11:19:15;;;;;;;22.00;14.23;;;;;;;2.68;100.00;98023.25;5076318;28;20211;-64
2020/12/01 11:21:41;;;;;;;27.07;15.70;;;;;;;2.75;100.00;98039.53;5076233;28;20298;-63
2020/12/01 11:24:07;;;;;;;26.57;15.37;;;;;;;2.72;100.00;98035.28;5072826;28;20662;-64
2020/12/01 11:26:34;;;;;;;26.20;15.97;;;;;;;2.70;100.00;98028.44;5056100;28;20228;-64
2020/12/01 11:29:00;;;;;;;23.17;14.67;;;;;;;2.71;100.00;98033.59;5056254;28;20209;-64
2020/12/01 11:31:26;;;;;;;23.13;15.13;;;;;;;2.74;100.00;98033.47;5057017;28;20681;-64
2020/12/01 11:34:02;;;;;;;22.67;15.17;;;;;;;2.80;100.00;98032.34;5056382;28;20219;-64
2020/12/01 11:36:28;;;;;;;23.50;14.07;;;;;;;2.84;100.00;98032.19;5055612;28;21373;-64
2020/12/01 11:38:54;;;;;;;23.03;14.63;;;;;;;2.89;100.00;98038.06;5055966;28;20219;-64
2020/12/01 11:41:21;;;;;;;21.43;14.37;;;;;;;2.91;100.00;98031.03;5055925;28;20217;-64
2020/12/01 11:43:48;;;;;;;26.13;14.77;;;;;;;2.89;100.00;98037.22;5053930;28;20689;-65
2020/12/01 11:46:14;;;;;;;25.43;15.00;;;;;;;2.90;100.00;98042.38;5055860;28;20222;-66
2020/12/01 11:48:40;;;;;;;20.03;14.03;;;;;;;2.90;100.00;98042.38;5055808;28;20216;-64
2020/12/01 11:51:06;;;;;;;22.20;14.47;;;;;;;2.88;100.00;98040.75;5055411;28;20243;-63
2020/12/01 11:53:32;;;;;;;23.97;14.33;;;;;;;2.91;100.00;98046.69;5055706;28;20220;-64
2020/12/01 11:55:58;;;;;;;23.70;14.00;;;;;;;2.94;100.00;98046.56;5055597;28;20246;-64
2020/12/01 11:58:23;;;;;;;22.93;13.73;;;;;;;2.96;100.00;98049.09;5055702;28;20208;-65
2020/12/01 12:00:50;;;;;;;19.90;13.33;;;;;;;2.92;100.00;98047.53;5055547;28;20555;-65
2020/12/01 12:03:16;;;;;;;19.27;12.97;;;;;;;2.90;100.00;98052.81;5055511;28;20204;-65
2020/12/01 12:05:42;;;;;;;20.27;13.07;;;;;;;2.87;100.00;98045.09;5055533;28;20238;-64
2020/12/01 12:08:08;;;;;;;18.77;13.20;;;;;;;2.88;100.00;98046.78;5053748;28;20216;-64